Time;durP1;ratioP1;P1;durP2;ratioP2;P2;SDS_P1;SDS_P2;PMS_P1;PMS_P2;Temp;Humidity;BMP_temperature;BMP_pressure;BME280_temperature;BME280_humidity;BME280_pressure;Samples;Min_cycle;Max_cycle;Signal;HPM_P1;HPM_P2
2022/11/22 16:01:30;;;;;;;;;2.75;1.75;;;;;11.92;79.21;99428.81;6226920;22;49567;-80
2022/11/22 16:03:57;;;;;;;;;2.00;0.75;;;;;12.13;79.67;99459.38;6237535;22;50669;-80
2022/11/22 16:06:25;;;;;;;;;5.00;3.25;;;;;11.81;79.44;99404.34;6235980;22;49582;-81
2022/11/22 16:09:04;;;;;;;;;3.50;2.25;;;;;11.30;79.40;99327.50;6240239;22;49547;-79
2022/11/22 16:11:33;;;;;;;;;2.25;1.00;;;;;12.09;79.96;99466.41;6238238;22;49812;-76
2022/11/22 16:13:59;;;;;;;;;6.00;2.50;;;;;12.11;80.61;99467.28;6241734;22;49661;-79
2022/11/22 16:16:30;;;;;;;;;3.00;2.75;;;;;12.03;80.01;99459.41;6235997;22;49810;-83
2022/11/22 16:19:24;;;;;;;;;3.25;2.75;;;;;12.05;79.83;99462.03;6235998;22;49819;-82
2022/11/22 16:21:58;;;;;;;;;1.75;1.75;;;;;10.59;80.09;99224.53;6238147;22;49965;-78
2022/11/22 16:24:31;;;;;;;;;1.25;1.00;;;;;11.99;79.07;99470.84;6237588;22;49806;-78
2022/11/22 16:26:59;;;;;;;;;1.75;1.00;;;;;11.36;79.30;99358.97;6241338;22;49741;-76
2022/11/22 16:29:34;;;;;;;;;1.00;0.25;;;;;11.79;79.30;99440.25;6240217;22;49575;-74
2022/11/22 16:32:01;;;;;;;;;5.50;2.75;;;;;12.06;78.94;99481.31;6238779;22;49536;-77
2022/11/22 16:34:26;;;;;;;;;1.75;1.75;;;;;11.52;78.98;99391.31;6236326;22;51027;-77
2022/11/22 16:36:51;;;;;;;;;2.25;2.00;;;;;12.06;79.67;99489.22;6236805;22;49602;-76
2022/11/22 16:39:17;;;;;;;;;1.25;1.25;;;;;12.04;79.79;99502.38;6234022;22;49944;-78
2022/11/22 16:41:42;;;;;;;;;2.00;2.00;;;;;11.26;79.90;99371.28;6235795;22;50195;-77
2022/11/22 16:44:15;;;;;;;;;3.00;1.75;;;;;11.45;80.06;99393.09;6234513;22;50207;-79
2022/11/22 19:15:55;;;;;;;;;3.00;3.00;;;;;9.43;100.00;99604.47;5003090;27;49634;-82
2022/11/22 19:18:20;;;;;;;;;7.00;4.00;;;;;9.23;99.99;99533.63;4984052;28;49688;-83
2022/11/22 19:20:46;;;;;;;;;6.00;3.00;;;;;9.58;99.47;99577.50;4984467;28;49829;-82
2022/11/22 19:23:11;;;;;;;;;7.50;4.25;;;;;9.95;97.43;99621.38;4984478;27;50249;-81
2022/11/22 19:25:36;;;;;;;;;5.25;3.00;;;;;9.91;97.17;99593.38;4983649;28;49802;-81
2022/11/22 19:28:02;;;;;;;;;4.00;4.00;;;;;10.08;95.48;99603.97;4980644;28;49741;-85
2022/11/22 19:30:28;;;;;;;;;7.75;4.50;;;;;10.18;94.35;99597.88;4965252;28;49772;-84
2022/11/22 19:32:56;;;;;;;;;5.25;4.00;;;;;10.37;92.93;99616.34;4973791;28;50635;-82
2022/11/22 19:35:21;;;;;;;;;11.25;5.25;;;;;10.41;92.86;99618.97;4982787;28;62517;-75
2022/11/22 19:37:47;;;;;;;;;4.00;3.00;;;;;10.47;91.58;99620.75;4983118;27;57275;-79
2022/11/22 19:40:12;;;;;;;;;5.50;2.00;;;;;10.39;90.91;99596.22;4983394;27;49687;-80
2022/11/22 19:42:39;;;;;;;;;7.00;5.00;;;;;10.50;90.07;99602.38;4981370;27;49778;-76
2022/11/22 19:45:07;;;;;;;;;5.00;5.00;;;;;10.51;89.85;99612.00;4968939;27;49748;-80
2022/11/22 19:47:33;;;;;;;;;3.00;2.00;;;;;10.69;88.99;99624.28;4964581;28;49783;-78
2022/11/22 19:49:58;;;;;;;;;3.00;3.00;;;;;10.75;89.03;99632.19;4964674;28;49900;-75
2022/11/22 19:52:23;;;;;;;;;4.00;4.00;;;;;10.66;88.41;99619.94;4964356;28;49858;-80
2022/11/22 19:54:49;;;;;;;;;1.00;1.00;;;;;10.45;88.16;99585.75;4993333;27;49643;-81
2022/11/22 19:57:15;;;;;;;;;3.25;3.25;;;;;10.79;88.41;99639.19;4972570;27;50018;-81
2022/11/22 19:59:40;;;;;;;;;4.00;4.00;;;;;10.83;88.14;99640.97;4964531;28;49855;-76
2022/11/22 20:02:07;;;;;;;;;2.75;2.75;;;;;10.85;87.92;99647.97;4964176;28;49820;-74
2022/11/22 20:04:33;;;;;;;;;4.00;1.25;;;;;10.72;87.52;99621.69;4982789;28;49851;-78
2022/11/22 20:06:58;;;;;;;;;2.75;2.75;;;;;10.89;87.18;99644.47;4977660;27;50005;-82
2022/11/22 20:09:27;;;;;;;;;4.50;3.25;;;;;10.94;87.67;99659.34;4982775;27;49912;-82
2022/11/22 20:11:52;;;;;;;;;5.00;5.00;;;;;10.95;86.91;99647.97;4963969;28;49726;-77
2022/11/22 20:14:17;;;;;;;;;4.75;4.75;;;;;10.95;87.13;99634.84;4963224;28;49834;-76
2022/11/22 20:16:43;;;;;;;;;4.25;4.00;;;;;10.99;86.60;99640.09;4963845;28;49609;-76
2022/11/22 20:19:11;;;;;;;;;2.00;2.00;;;;;10.99;85.77;99649.72;4964073;28;49872;-78
2022/11/22 20:21:37;;;;;;;;;4.00;2.75;;;;;10.97;85.94;99649.72;4962987;28;51496;-77
2022/11/22 20:24:04;;;;;;;;;4.50;4.00;;;;;10.77;84.40;99627.81;4964124;28;50317;-75
2022/11/22 20:26:30;;;;;;;;;8.25;4.00;;;;;10.85;85.00;99655.84;4959770;28;49759;-79
2022/11/22 20:29:00;;;;;;;;;5.50;3.00;;;;;10.80;84.95;99665.44;4969697;28;49799;-74
2022/11/22 20:31:26;;;;;;;;;4.00;3.50;;;;;10.79;85.46;99660.19;4972033;28;49687;-77
2022/11/22 20:33:57;;;;;;;;;5.00;3.25;;;;;10.71;85.33;99667.16;4953130;28;49979;-85
2022/11/22 20:36:26;;;;;;;;;7.50;5.00;;;;;10.42;84.66;99618.13;4969478;28;49972;-82
2022/11/22 20:38:52;;;;;;;;;4.75;4.75;;;;;10.60;85.81;99654.88;4987195;27;49659;-76
2022/11/22 20:41:20;;;;;;;;;5.25;3.75;;;;;10.64;85.32;99673.28;4970589;28;50856;-74
2022/11/22 20:43:45;;;;;;;;;5.25;3.75;;;;;10.49;85.73;99653.09;4969723;28;49750;-73
2022/11/22 20:46:15;;;;;;;;;2.75;2.50;;;;;10.60;85.95;99685.50;4969234;28;49912;-73
2022/11/22 20:48:43;;;;;;;;;5.00;2.00;;;;;10.46;85.68;99653.09;4969804;28;49719;-76
2022/11/22 20:51:12;;;;;;;;;2.00;2.00;;;;;10.56;86.55;99686.38;4959386;28;49607;-75
2022/11/22 20:53:38;;;;;;;;;4.25;4.25;;;;;10.53;86.25;99682.00;4955930;28;49872;-76
2022/11/22 20:56:04;;;;;;;;;7.00;3.00;;;;;10.20;86.15;99645.97;4959255;28;49817;-78
2022/11/22 20:58:30;;;;;;;;;4.25;4.00;;;;;10.47;87.15;99689.84;4950898;28;50123;-78
2022/11/22 21:00:57;;;;;;;;;2.50;2.50;;;;;10.19;87.17;99664.31;4950695;28;49774;-81
2022/11/22 21:03:23;;;;;;;;;3.00;3.00;;;;;10.23;87.80;99643.41;4953468;28;49796;-78
2022/11/22 21:05:54;;;;;;;;;7.00;4.00;;;;;10.22;87.53;99635.50;4969304;28;49804;-79
2022/11/22 21:08:21;;;;;;;;;5.25;4.00;;;;;9.94;87.16;99609.16;4969321;28;49898;-78
2022/11/22 21:10:46;;;;;;;;;3.25;3.00;;;;;10.58;87.39;99703.00;4970067;28;50551;-77
2022/11/22 21:13:12;;;;;;;;;8.00;5.50;;;;;10.59;87.29;99694.25;4969681;28;49854;-76
2022/11/22 21:15:37;;;;;;;;;4.50;3.50;;;;;9.44;87.58;99502.31;4968318;28;49774;-76
2022/11/22 21:18:06;;;;;;;;;5.75;3.75;;;;;9.93;87.69;99568.06;4968903;28;49622;-77
2022/11/22 21:20:36;;;;;;;;;2.75;2.75;;;;;9.97;86.95;99593.44;4971282;28;49909;-77
2022/11/22 21:23:02;;;;;;;;;3.00;1.75;;;;;10.72;87.04;99692.56;4968866;28;49800;-76
2022/11/22 21:25:27;;;;;;;;;4.00;3.00;;;;;10.53;87.07;99671.50;4968980;28;49953;-77
2022/11/22 21:27:53;;;;;;;;;2.50;1.75;;;;;9.77;87.15;99542.66;4969040;28;49842;-77
2022/11/22 21:30:18;;;;;;;;;4.25;3.25;;;;;9.90;86.95;99567.16;5013778;28;52817;-79
2022/11/22 21:32:44;;;;;;;;;4.00;4.00;;;;;9.97;87.47;99584.69;4968942;28;49748;-79
2022/11/22 21:35:10;;;;;;;;;3.75;3.75;;;;;10.83;87.34;99712.72;4978123;28;49608;-77
2022/11/22 21:37:35;;;;;;;;;5.75;2.50;;;;;10.83;87.43;99717.97;4968518;28;49771;-79
2022/11/22 21:40:01;;;;;;;;;3.25;3.00;;;;;10.12;87.01;99613.56;4979385;28;49868;-79
2022/11/22 21:42:26;;;;;;;;;3.25;2.75;;;;;9.83;87.50;99566.25;4973820;27;49961;-76
2022/11/22 21:44:52;;;;;;;;;4.25;3.75;;;;;10.59;87.19;99697.75;4967052;28;49718;-78
